Etretat — FIDP — position and weather

sailwx.info

Track history (hours):
 
Tides and Currents Weather Stations Pressure Air Temp Water Temp Dewpoint Dewpoint Depression Visibility Wind Speed Wind Dir Waves Ship Positions

Etretat

Last reported at 2017-Apr-28 08:01 UTC. Time now 2017-Apr-28 08:15 UTC.
Position N 50°49' W 001°06'.

Length 187 m; draft 6 m.

Type: Ship. MMSI: 228022900.

Date/timePositionNaut miles runAvg speedWind from/ knotsBaromVisibWave heightAir tempDewpointWater temp
2017-Apr-28 08:01N 50°49' W 001°06'0 0.0
2017-Apr-28 07:31N 50°49' W 001°06'0 0.0
2017-Apr-28 07:00N 50°49' W 001°06'0 0.0
2017-Apr-28 06:30N 50°49' W 001°06'0 0.3
2017-Apr-28 06:01N 50°49' W 001°06'4 7.6
2017-Apr-28 05:31N 50°45' W 001°05'917.3
2017-Apr-28 05:00N 50°39' W 000°55'714.2
2017-Apr-28 04:30N 50°32' W 000°51'1813.5
2017-Apr-28 03:09N 50°16' W 000°38'213.7
2017-Apr-28 03:00N 50°14' W 000°37'713.8
2017-Apr-28 02:30N 50°08' W 000°33'714.4
2017-Apr-28 02:00N 50°01' W 000°28'714.4
2017-Apr-28 01:30N 49°55' W 000°23'5 9.6
2017-Apr-28 01:00N 49°51' W 000°19'1 1.3
2017-Apr-28 00:30N 49°52' W 000°19'1 1.1
2017-Apr-28 00:00N 49°52' W 000°18'5 9.7
2017-Apr-27 23:30N 49°48' W 000°14'0 0.7
2017-Apr-27 23:00N 49°47' W 000°13'5 9.6
2017-Apr-27 22:30N 49°44' W 000°09'4 8.1
2017-Apr-27 22:00N 49°40' W 000°05'4 8.8
2017-Apr-27 21:31N 49°36' W 000°03'5 9.2
2017-Apr-27 21:00N 49°32' W 000°00'510.4
2017-Apr-27 20:30N 49°29' E 000°07'0 0.0
2017-Apr-27 20:00N 49°29' E 000°07'0 0.0
2017-Apr-27 19:30N 49°29' E 000°07'0 0.0
2017-Apr-27 19:00N 49°29' E 000°07'0 0.0
2017-Apr-27 18:30N 49°29' E 000°07'0 0.0
2017-Apr-27 18:00N 49°29' E 000°07'0 0.0
2017-Apr-27 17:30N 49°29' E 000°07'0 0.0
2017-Apr-27 17:00N 49°29' E 000°07'0 0.0
2017-Apr-27 16:30N 49°29' E 000°07'0 0.0
2017-Apr-27 16:00N 49°29' E 000°07'0 0.0
2017-Apr-27 15:30N 49°29' E 000°07'0 0.0
2017-Apr-27 15:00N 49°29' E 000°07'0 0.0
2017-Apr-27 14:00N 49°29' E 000°07'0 0.0
2017-Apr-27 13:30N 49°29' E 000°07'0 0.0
2017-Apr-27 13:00N 49°29' E 000°07'0 0.0
2017-Apr-27 12:30N 49°29' E 000°07'0 0.0
2017-Apr-27 12:00N 49°29' E 000°07'0 0.0
2017-Apr-27 11:30N 49°29' E 000°07'0 0.0
2017-Apr-27 11:00N 49°29' E 000°07'0 0.0
2017-Apr-27 10:30N 49°29' E 000°07'0 0.0
2017-Apr-27 10:00N 49°29' E 000°07'0 0.0
2017-Apr-27 09:30N 49°29' E 000°07'0 0.0
2017-Apr-27 09:00N 49°29' E 000°07'0 0.0
2017-Apr-27 08:31N 49°29' E 000°07'0 0.0
2017-Apr-27 08:00N 49°29' E 000°07'0 0.0
2017-Apr-27 07:30N 49°29' E 000°07'0 0.0
2017-Apr-27 07:00N 49°29' E 000°07'0 0.0
2017-Apr-27 06:30N 49°29' E 000°07'2 4.1
2017-Apr-27 06:00N 49°30' E 000°04'816.3
2017-Apr-27 05:30N 49°36' W 000°04'612.4
2017-Apr-27 05:00N 49°41' W 000°09'1 1.6
2017-Apr-27 04:30N 49°42' W 000°08'510.7
2017-Apr-27 04:01N 49°47' W 000°13'815.0
2017-Apr-27 03:31N 49°53' W 000°18'714.9
2017-Apr-27 03:01N 49°60' W 000°24'714.5
2017-Apr-27 02:30N 50°06' W 000°30'2414.5
2017-Apr-27 00:50N 50°28' W 000°46'513.9
2017-Apr-27 00:30N 50°32' W 000°50'714.1
2017-Apr-27 00:00N 50°38' W 000°55'713.8
2017-Apr-26 23:31N 50°43' W 001°02'510.9
2017-Apr-26 23:00N 50°48' W 001°07'1 2.1
2017-Apr-26 22:30N 50°49' W 001°06'0 0.0
2017-Apr-26 22:00N 50°49' W 001°06'0 0.0
2017-Apr-26 21:30N 50°49' W 001°06'0 0.0
2017-Apr-26 21:00N 50°49' W 001°06'1 2.4
2017-Apr-26 20:30N 50°48' W 001°07'713.7
2017-Apr-26 20:01N 50°43' W 000°59'1020.1
2017-Apr-26 19:30N 50°34' W 000°52'1020.4
2017-Apr-26 19:00N 50°25' W 000°45'1920.8
2017-Apr-26 18:07N 50°08' W 000°32'220.9
2017-Apr-26 18:00N 50°06' W 000°30'1121.2
2017-Apr-26 17:30N 49°57' W 000°22'1121.4
2017-Apr-26 17:01N 49°48' W 000°13'1121.3
2017-Apr-26 16:30N 49°38' W 000°06'918.3
2017-Apr-26 16:00N 49°30' E 000°01'4 7.6
2017-Apr-26 15:30N 49°29' E 000°07'0 0.0
2017-Apr-26 15:00N 49°29' E 000°07'0 0.0
2017-Apr-26 14:30N 49°29' E 000°07'0 0.0
2017-Apr-26 13:30N 49°29' E 000°07'0 0.0
2017-Apr-26 13:00N 49°29' E 000°07'0 0.0
2017-Apr-26 12:30N 49°29' E 000°07'0 0.0
2017-Apr-26 12:00N 49°29' E 000°07'0 0.0
2017-Apr-26 11:30N 49°29' E 000°07'0 0.0
2017-Apr-26 11:00N 49°29' E 000°07'0 0.0
2017-Apr-26 10:30N 49°29' E 000°07'0 0.0
2017-Apr-26 10:00N 49°29' E 000°07'0 0.0
2017-Apr-26 09:30N 49°29' E 000°07'0 0.0
2017-Apr-26 09:00N 49°29' E 000°07'0 0.0
2017-Apr-26 08:30N 49°29' E 000°07'0 0.0
2017-Apr-26 08:00N 49°29' E 000°07'0 0.0
2017-Apr-26 07:30N 49°29' E 000°07'0 0.0
2017-Apr-26 07:00N 49°29' E 000°07'0 0.0
2017-Apr-26 06:30N 49°29' E 000°07'1 1.7
2017-Apr-26 06:00N 49°29' E 000°05'815.3
2017-Apr-26 05:30N 49°35' W 000°02'714.1
2017-Apr-26 05:00N 49°41' W 000°08'713.9
2017-Apr-26 04:30N 49°47' W 000°13'713.6
2017-Apr-26 04:00N 49°53' W 000°19'713.2
2017-Apr-26 03:30N 49°58' W 000°25'713.3
2017-Apr-26 03:00N 50°04' W 000°30'2613.5
2017-Apr-26 01:04N 50°28' W 000°47'213.5
2017-Apr-26 00:55N 50°30' W 000°48'613.4
2017-Apr-26 00:30N 50°35' W 000°52'713.8
2017-Apr-26 00:00N 50°41' W 000°57'612.8
2017-Apr-25 23:30N 50°45' W 001°05'4 8.1
2017-Apr-25 23:00N 50°49' W 001°06'0 0.1
2017-Apr-25 22:30N 50°49' W 001°06'0 0.0
2017-Apr-25 22:00N 50°49' W 001°06'0 0.0
2017-Apr-25 21:30N 50°49' W 001°06'0 0.0
2017-Apr-25 21:00N 50°49' W 001°06'2 3.6
2017-Apr-25 20:30N 50°47' W 001°06'4 8.8
2017-Apr-25 20:00N 50°44' W 001°02'4 8.9
2017-Apr-25 19:30N 50°40' W 000°56'815.7
2017-Apr-25 19:01N 50°35' W 000°48'918.4
2017-Apr-25 18:30N 50°28' W 000°39'1420.2
2017-Apr-25 17:50N 50°15' W 000°32'720.0
2017-Apr-25 17:30N 50°09' W 000°28'1020.1
2017-Apr-25 17:01N 49°60' W 000°21'1020.4
2017-Apr-25 16:30N 49°51' W 000°14'1020.3
2017-Apr-25 16:01N 49°41' W 000°07'1020.2
2017-Apr-25 15:31N 49°32' W 000°01'611.5
2017-Apr-25 15:01N 49°29' E 000°07'0 0.0
2017-Apr-25 14:31N 49°29' E 000°07'0 0.0
2017-Apr-25 13:31N 49°29' E 000°07'0 0.0
2017-Apr-25 13:00N 49°29' E 000°07'0 0.0
2017-Apr-25 12:31N 49°29' E 000°07'0 0.0
2017-Apr-25 12:01N 49°29' E 000°07'0 0.0
2017-Apr-25 11:30N 49°29' E 000°07'0 0.0
2017-Apr-25 11:01N 49°29' E 000°07'0 0.0
2017-Apr-25 10:31N 49°29' E 000°07'0 0.0
2017-Apr-25 10:01N 49°29' E 000°07'0 0.0
2017-Apr-25 09:30N 49°29' E 000°07'0 0.0
2017-Apr-25 09:01N 49°29' E 000°07'0 0.0
2017-Apr-25 08:31N 49°29' E 000°07'0 0.0
2017-Apr-25 08:01N 49°29' E 000°07'0 0.0
2017-Apr-25 07:30N 49°29' E 000°07'0 0.0
2017-Apr-25 07:01N 49°29' E 000°07'0 0.0
2017-Apr-25 06:31N 49°29' E 000°07'3 5.7
2017-Apr-25 06:01N 49°30' E 000°02'612.9
2017-Apr-25 05:30N 49°35' W 000°04'611.4
2017-Apr-25 05:00N 49°40' W 000°07'611.5
2017-Apr-25 04:30N 49°45' W 000°11'611.4
2017-Apr-25 04:00N 49°50' W 000°14'612.4
2017-Apr-25 03:30N 49°56' W 000°19'612.7
2017-Apr-25 03:00N 50°01' W 000°23'612.3
2017-Apr-25 02:30N 50°07' W 000°28'2412.9
2017-Apr-25 00:39N 50°28' W 000°47'213.6
2017-Apr-25 00:30N 50°30' W 000°48'713.4
2017-Apr-25 00:00N 50°36' W 000°53'713.7
2017-Apr-24 23:30N 50°42' W 000°58'612.8
2017-Apr-24 23:00N 50°46' W 001°05'3 5.9
2017-Apr-24 22:31N 50°49' W 001°06'0 0.0
2017-Apr-24 22:00N 50°49' W 001°06'0 0.0
2017-Apr-24 21:30N 50°49' W 001°06'0 0.0
2017-Apr-24 21:00N 50°49' W 001°06'0 0.2
2017-Apr-24 20:30N 50°49' W 001°06'4 7.0
2017-Apr-24 20:00N 50°45' W 001°05'510.6
2017-Apr-24 19:31N 50°42' W 000°58'917.6
2017-Apr-24 19:01N 50°35' W 000°52'1019.7
2017-Apr-24 18:30N 50°26' W 000°44'1020.0
2017-Apr-24 18:00N 50°17' W 000°36'1019.9
2017-Apr-24 17:31N 50°09' W 000°28'1020.0
2017-Apr-24 17:01N 49°60' W 000°22'1020.0
2017-Apr-24 16:31N 49°50' W 000°15'1020.4
2017-Apr-24 16:01N 49°41' W 000°08'1020.0
2017-Apr-24 15:31N 49°33' W 000°01'611.9
2017-Apr-24 15:00N 49°29' E 000°07'0 0.0
2017-Apr-24 14:30N 49°29' E 000°07'0 0.0
2017-Apr-24 13:30N 49°29' E 000°07'0 0.0
2017-Apr-24 13:00N 49°29' E 000°07'0 0.0
2017-Apr-24 12:30N 49°29' E 000°07'0 0.0
2017-Apr-24 12:00N 49°29' E 000°07'0 0.0
2017-Apr-24 11:30N 49°29' E 000°07'0 0.0
2017-Apr-24 11:00N 49°29' E 000°07'0 0.0
2017-Apr-24 10:30N 49°29' E 000°07'0 0.0
2017-Apr-24 10:00N 49°29' E 000°07'0 0.0
2017-Apr-24 09:30N 49°29' E 000°07'0 0.0
2017-Apr-24 09:00N 49°29' E 000°07'0 0.0
2017-Apr-24 08:30N 49°29' E 000°07'0 0.0
2017-Apr-24 08:01N 49°29' E 000°07'0 0.0
2017-Apr-24 07:30N 49°29' E 000°07'0 0.0
2017-Apr-24 07:00N 49°29' E 000°07'0 0.0
2017-Apr-24 06:30N 49°29' E 000°07'1 2.6
2017-Apr-24 06:01N 49°29' E 000°05'816.6
2017-Apr-24 05:31N 49°36' W 000°02'3 5.4
2017-Apr-24 05:00N 49°39' W 000°03'1 1.5
2017-Apr-24 04:30N 49°39' W 000°04'3 6.5
2017-Apr-24 04:01N 49°41' W 000°07'714.4
2017-Apr-24 03:31N 49°48' W 000°13'714.3
2017-Apr-24 03:01N 49°54' W 000°18'714.4
2017-Apr-24 02:30N 50°00' W 000°23'714.5
2017-Apr-24 02:01N 50°07' W 000°28'714.2
2017-Apr-24 01:31N 50°13' W 000°34'714.3
2017-Apr-24 01:01N 50°19' W 000°39'914.5
2017-Apr-24 00:24N 50°27' W 000°45'614.5
2017-Apr-24 00:01N 50°32' W 000°49'714.0
2017-Apr-23 23:30N 50°39' W 000°54'612.7
2017-Apr-23 23:01N 50°43' W 001°01'611.4
2017-Apr-23 22:31N 50°47' W 001°07'1 2.7
2017-Apr-23 22:01N 50°49' W 001°06'0 0.0
2017-Apr-23 21:31N 50°49' W 001°06'0 0.0
2017-Apr-23 21:01N 50°49' W 001°06'0 0.0
2017-Apr-23 20:31N 50°49' W 001°06'1 1.7
2017-Apr-23 20:00N 50°48' W 001°07'713.2
2017-Apr-23 19:31N 50°43' W 001°00'1020.0
2017-Apr-23 19:01N 50°35' W 000°52'1020.3
2017-Apr-23 18:31N 50°26' W 000°44'1020.5
2017-Apr-23 18:01N 50°17' W 000°37'1320.3
2017-Apr-23 17:21N 50°05' W 000°26'720.3
2017-Apr-23 17:00N 49°59' W 000°20'1020.0
2017-Apr-23 16:31N 49°50' W 000°14'1020.4
2017-Apr-23 16:00N 49°41' W 000°07'1020.2
2017-Apr-23 15:31N 49°32' W 000°00'511.0
2017-Apr-23 15:00N 49°29' E 000°07'0 0.0
2017-Apr-23 14:00N 49°29' E 000°07'0 0.0
2017-Apr-23 13:30N 49°29' E 000°07'0 0.0
2017-Apr-23 13:00N 49°29' E 000°07'0 0.0
2017-Apr-23 12:30N 49°29' E 000°07'0 0.0
2017-Apr-23 12:00N 49°29' E 000°07'0 0.0
2017-Apr-23 11:30N 49°29' E 000°07'0 0.0
2017-Apr-23 11:00N 49°29' E 000°07'0 0.0
2017-Apr-23 10:30N 49°29' E 000°07'0 0.0
2017-Apr-23 10:00N 49°29' E 000°07'0 0.0
2017-Apr-23 09:30N 49°29' E 000°07'0 0.0
2017-Apr-23 09:00N 49°29' E 000°07'0 0.0
2017-Apr-23 08:30N 49°29' E 000°07'0 0.0
2017-Apr-23 08:00N 49°29' E 000°07'0 0.0
2017-Apr-23 07:30N 49°29' E 000°07'0 0.0
2017-Apr-23 07:00N 49°29' E 000°07'0 0.0
2017-Apr-23 06:30N 49°29' E 000°07'1 2.9
2017-Apr-23 06:00N 49°29' E 000°05'816.5
2017-Apr-23 05:31N 49°36' W 000°02'3 6.4
2017-Apr-23 05:01N 49°39' W 000°04'1 1.7
2017-Apr-23 04:30N 49°39' W 000°05'611.5
2017-Apr-23 04:00N 49°44' W 000°10'714.7
2017-Apr-23 03:30N 49°50' W 000°15'815.1
2017-Apr-23 03:00N 49°57' W 000°22'714.9
2017-Apr-23 02:30N 50°02' W 000°29'814.5
2017-Apr-23 01:57N 50°09' W 000°37'613.8
2017-Apr-23 01:30N 50°15' W 000°40'1414.2
2017-Apr-23 00:30N 50°28' W 000°47'713.9
2017-Apr-23 00:00N 50°34' W 000°52'714.0
2017-Apr-22 23:30N 50°40' W 000°57'713.4
2017-Apr-22 23:00N 50°45' W 001°05'4 8.0
2017-Apr-22 22:30N 50°49' W 001°06'0 0.3
2017-Apr-22 22:01N 50°49' W 001°06'0 0.0
2017-Apr-22 21:30N 50°49' W 001°06'0 0.0
2017-Apr-22 21:00N 50°49' W 001°06'0 0.2
2017-Apr-22 20:30N 50°49' W 001°06'3 5.6
2017-Apr-22 20:00N 50°46' W 001°05'918.0
2017-Apr-22 19:30N 50°39' W 000°56'918.4
2017-Apr-22 19:00N 50°31' W 000°51'1118.8
2017-Apr-22 18:24N 50°21' W 000°42'818.5
2017-Apr-22 17:58N 50°14' W 000°35'918.7
2017-Apr-22 17:30N 50°06' W 000°29'918.7
2017-Apr-22 17:00N 49°58' W 000°22'918.6
2017-Apr-22 16:30N 49°50' W 000°14'1019.4
2017-Apr-22 16:00N 49°42' W 000°07'1020.6
2017-Apr-22 15:30N 49°32' W 000°00'611.1
2017-Apr-22 15:00N 49°29' E 000°07'0 0.0
2017-Apr-22 14:00N 49°29' E 000°07'0 0.0
2017-Apr-22 13:30N 49°29' E 000°07'0 0.0
2017-Apr-22 13:00N 49°29' E 000°07'0 0.0
2017-Apr-22 12:30N 49°29' E 000°07'0 0.0
2017-Apr-22 12:00N 49°29' E 000°07'0 0.0
2017-Apr-22 11:30N 49°29' E 000°07'0 0.0
2017-Apr-22 11:00N 49°29' E 000°07'0 0.0
2017-Apr-22 10:30N 49°29' E 000°07'0 0.0
2017-Apr-22 10:00N 49°29' E 000°07'0 0.0
2017-Apr-22 09:30N 49°29' E 000°07'0 0.0
2017-Apr-22 09:00N 49°29' E 000°07'0 0.0
2017-Apr-22 08:30N 49°29' E 000°07'0 0.0
2017-Apr-22 08:00N 49°29' E 000°07'0 0.0
2017-Apr-22 07:30N 49°29' E 000°07'0 0.0
2017-Apr-22 07:00N 49°29' E 000°07'0 0.0
2017-Apr-22 06:30N 49°29' E 000°07'1 2.9
2017-Apr-22 06:00N 49°29' E 000°05'816.1
2017-Apr-22 05:30N 49°36' W 000°02'2 4.5
2017-Apr-22 05:00N 49°38' W 000°03'1 1.5
2017-Apr-22 04:30N 49°38' W 000°04'4 8.5
2017-Apr-22 04:00N 49°42' W 000°08'713.9
2017-Apr-22 03:30N 49°48' W 000°12'714.2
2017-Apr-22 03:00N 49°54' W 000°19'714.0
2017-Apr-22 02:30N 49°59' W 000°25'714.3
2017-Apr-22 02:00N 50°06' W 000°30'714.5
2017-Apr-22 01:30N 50°12' W 000°36'714.2
2017-Apr-22 01:00N 50°18' W 000°41'714.2
2017-Apr-22 00:30N 50°25' W 000°45'714.2
2017-Apr-22 00:00N 50°32' W 000°49'714.1
2017-Apr-21 23:30N 50°38' W 000°54'714.2
2017-Apr-21 23:01N 50°43' W 001°01'611.4
2017-Apr-21 22:31N 50°48' W 001°07'1 2.1
2017-Apr-21 22:00N 50°49' W 001°06'0 0.0
2017-Apr-21 21:30N 50°49' W 001°06'0 0.0
2017-Apr-21 21:00N 50°49' W 001°06'0 0.0
2017-Apr-21 20:30N 50°49' W 001°06'0 0.0
2017-Apr-21 20:01N 50°49' W 001°06'0 0.0
2017-Apr-21 19:30N 50°49' W 001°06'0 0.0
2017-Apr-21 19:00N 50°49' W 001°06'0 0.0
2017-Apr-21 18:30N 50°49' W 001°06'0 0.0
2017-Apr-21 18:00N 50°49' W 001°06'0 0.0
2017-Apr-21 17:30N 50°49' W 001°06'0 0.0
2017-Apr-21 17:00N 50°49' W 001°06'0 0.0
2017-Apr-21 16:31N 50°49' W 001°06'0 0.0
2017-Apr-21 16:00N 50°49' W 001°06'0 0.0
2017-Apr-21 15:30N 50°49' W 001°06'0 0.0
2017-Apr-21 15:00N 50°49' W 001°06'0 0.0
2017-Apr-21 14:30N 50°49' W 001°06'0 0.0
2017-Apr-21 13:30N 50°49' W 001°06'0 0.0
2017-Apr-21 13:01N 50°49' W 001°06'0 0.0
2017-Apr-21 12:31N 50°49' W 001°06'0 0.0
2017-Apr-21 12:00N 50°49' W 001°06'0 0.0
2017-Apr-21 11:30N 50°49' W 001°06'0 0.0
2017-Apr-21 11:00N 50°49' W 001°06'0 0.0
2017-Apr-21 10:30N 50°49' W 001°06'0 0.0
2017-Apr-21 10:01N 50°49' W 001°06'0 0.0
2017-Apr-21 09:30N 50°49' W 001°06'0 0.0
2017-Apr-21 09:00N 50°49' W 001°06'0 0.0
2017-Apr-21 08:30N 50°49' W 001°06'0 0.0
2017-Apr-21 08:00N 50°49' W 001°06'0 0.0
2017-Apr-21 07:30N 50°49' W 001°06'0 0.0
2017-Apr-21 07:00N 50°49' W 001°06'0 0.0
2017-Apr-21 06:30N 50°49' W 001°06'1 1.3
2017-Apr-21 06:01N 50°48' W 001°07'611.8
2017-Apr-21 05:31N 50°44' W 001°02'917.0
2017-Apr-21 05:00N 50°37' W 000°53'815.5
2017-Apr-21 04:30N 50°30' W 000°48'914.8
2017-Apr-21 03:52N 50°22' W 000°41'514.6
2017-Apr-21 03:30N 50°17' W 000°37'714.6
2017-Apr-21 03:00N 50°11' W 000°32'714.7
2017-Apr-21 02:30N 50°04' W 000°27'714.8
2017-Apr-21 02:01N 49°57' W 000°22'714.8
2017-Apr-21 01:31N 49°51' W 000°17'714.8
2017-Apr-21 01:01N 49°44' W 000°12'1 2.8
2017-Apr-21 00:30N 49°43' W 000°11'0 0.7
2017-Apr-21 00:00N 49°43' W 000°11'0 0.9
2017-Apr-20 23:30N 49°43' W 000°10'0 1.0
2017-Apr-20 23:00N 49°43' W 000°10'1 1.2
2017-Apr-20 22:30N 49°44' W 000°09'1 1.1
2017-Apr-20 22:00N 49°44' W 000°08'4 7.9
2017-Apr-20 21:30N 49°40' W 000°05'510.2
2017-Apr-20 21:00N 49°35' W 000°03'510.4
2017-Apr-20 20:30N 49°31' E 000°01'4 8.1
2017-Apr-20 20:00N 49°29' E 000°07'0 0.0
2017-Apr-20 19:30N 49°29' E 000°07'0 0.0
2017-Apr-20 19:00N 49°29' E 000°07'0 0.0
2017-Apr-20 18:30N 49°29' E 000°07'0 0.0
2017-Apr-20 18:00N 49°29' E 000°07'0 0.0
2017-Apr-20 17:30N 49°29' E 000°07'0 0.0
2017-Apr-20 17:00N 49°29' E 000°07'0 0.0
2017-Apr-20 16:30N 49°29' E 000°07'0 0.0
2017-Apr-20 16:00N 49°29' E 000°07'0 0.0
2017-Apr-20 15:30N 49°29' E 000°07'0 0.0
2017-Apr-20 15:00N 49°29' E 000°07'0 0.0
2017-Apr-20 14:30N 49°29' E 000°07'0 0.0
2017-Apr-20 13:30N 49°29' E 000°07'0 0.0
2017-Apr-20 13:00N 49°29' E 000°07'0 0.0
2017-Apr-20 12:30N 49°29' E 000°07'0 0.0
2017-Apr-20 12:00N 49°29' E 000°07'0 0.0
2017-Apr-20 11:30N 49°29' E 000°07'0 0.0
2017-Apr-20 11:00N 49°29' E 000°07'0 0.0
2017-Apr-20 10:30N 49°29' E 000°07'0 0.0
2017-Apr-20 10:00N 49°29' E 000°07'0 0.0
2017-Apr-20 09:30N 49°29' E 000°07'0 0.0
2017-Apr-20 09:00N 49°29' E 000°07'0 0.0
2017-Apr-20 08:30N 49°29' E 000°07'0 0.0
2017-Apr-20 08:00N 49°29' E 000°07'0 0.0
2017-Apr-20 07:30N 49°29' E 000°07'0 0.0
2017-Apr-20 07:00N 49°29' E 000°07'0 0.0
2017-Apr-20 06:30N 49°29' E 000°07'2 3.4
2017-Apr-20 06:00N 49°29' E 000°04'714.9
2017-Apr-20 05:30N 49°35' W 000°03'612.2
2017-Apr-20 05:00N 49°41' W 000°08'611.7
2017-Apr-20 04:30N 49°46' W 000°12'611.9
2017-Apr-20 04:00N 49°51' W 000°16'612.1
2017-Apr-20 03:30N 49°56' W 000°21'713.7
2017-Apr-20 03:00N 50°02' W 000°25'3215.0
2017-Apr-20 00:54N 50°30' W 000°49'615.5
2017-Apr-20 00:30N 50°36' W 000°53'714.0
2017-Apr-20 00:01N 50°42' W 000°58'713.4
2017-Apr-19 23:30N 50°47' W 001°06'2 4.1
2017-Apr-19 23:00N 50°49' W 001°06'0 0.0
2017-Apr-19 22:31N 50°49' W 001°06'0 0.0
2017-Apr-19 22:00N 50°49' W 001°06'0 0.0
2017-Apr-19 21:30N 50°49' W 001°06'0 0.0
2017-Apr-19 21:00N 50°49' W 001°06'1 2.7
2017-Apr-19 20:30N 50°47' W 001°07'714.8
2017-Apr-19 20:00N 50°42' W 000°58'1121.1
2017-Apr-19 19:30N 50°33' W 000°50'2421.9
2017-Apr-19 18:25N 50°13' W 000°30'921.5
2017-Apr-19 18:00N 50°04' W 000°26'1121.8
2017-Apr-19 17:30N 49°55' W 000°19'1121.6
2017-Apr-19 17:00N 49°45' W 000°11'1121.4
2017-Apr-19 16:30N 49°36' W 000°03'917.9
2017-Apr-19 16:01N 49°29' E 000°06'0 0.5
2017-Apr-19 15:31N 49°29' E 000°07'0 0.0
2017-Apr-19 15:00N 49°29' E 000°07'0 0.0
2017-Apr-19 14:31N 49°29' E 000°07'0 0.0
2017-Apr-19 13:31N 49°29' E 000°07'0 0.0
2017-Apr-19 13:01N 49°29' E 000°07'0 0.0
2017-Apr-19 12:31N 49°29' E 000°07'0 0.0
2017-Apr-19 12:01N 49°29' E 000°07'0 0.0
2017-Apr-19 11:31N 49°29' E 000°07'0 0.0
2017-Apr-19 11:01N 49°29' E 000°07'0 0.0
2017-Apr-19 10:31N 49°29' E 000°07'0 0.0
2017-Apr-19 10:01N 49°29' E 000°07'0 0.0
2017-Apr-19 09:31N 49°29' E 000°07'0 0.0
2017-Apr-19 09:01N 49°29' E 000°07'0 0.0
2017-Apr-19 08:31N 49°29' E 000°07'0 0.0
2017-Apr-19 08:01N 49°29' E 000°07'0 0.0
2017-Apr-19 07:30N 49°29' E 000°07'0 0.0
2017-Apr-19 07:01N 49°29' E 000°07'0 0.0
2017-Apr-19 06:31N 49°29' E 000°07'2 3.2
2017-Apr-19 06:01N 49°29' E 000°04'815.9
2017-Apr-19 05:31N 49°36' W 000°02'4 7.6
2017-Apr-19 05:00N 49°40' W 000°04'1 2.5
2017-Apr-19 04:30N 49°41' W 000°06'611.1
2017-Apr-19 04:00N 49°45' W 000°11'611.5
2017-Apr-19 03:30N 49°50' W 000°15'714.7
2017-Apr-19 03:00N 49°57' W 000°20'714.4
2017-Apr-19 02:30N 50°03' W 000°25'3214.0
2017-Apr-19 00:15N 50°31' W 000°48'313.8
2017-Apr-19 00:00N 50°34' W 000°51'713.8
2017-Apr-18 23:30N 50°40' W 000°56'713.1
2017-Apr-18 23:01N 50°44' W 001°04'5 9.5
2017-Apr-18 22:30N 50°49' W 001°06'0 0.3
2017-Apr-18 22:01N 50°49' W 001°06'0 0.0
2017-Apr-18 21:31N 50°49' W 001°06'0 0.0
2017-Apr-18 21:01N 50°49' W 001°06'0 0.0
2017-Apr-18 20:30N 50°49' W 001°06'2 3.6
2017-Apr-18 20:00N 50°47' W 001°06'714.9
2017-Apr-18 19:31N 50°42' W 000°58'1020.1
2017-Apr-18 19:00N 50°33' W 000°50'1020.6
2017-Apr-18 18:30N 50°24' W 000°42'1221.0
2017-Apr-18 17:55N 50°14' W 000°32'921.1
2017-Apr-18 17:30N 50°05' W 000°28'1121.6
2017-Apr-18 17:00N 49°56' W 000°20'1121.7
2017-Apr-18 16:30N 49°46' W 000°13'1121.9
2017-Apr-18 16:00N 49°36' W 000°04'1019.3
2017-Apr-18 15:30N 49°29' E 000°06'1 1.5
2017-Apr-18 15:00N 49°29' E 000°07'0 0.0
2017-Apr-18 14:30N 49°29' E 000°07'0 0.0
2017-Apr-18 13:30N 49°29' E 000°07'0 0.0
2017-Apr-18 13:00N 49°29' E 000°07'0 0.0
2017-Apr-18 12:30N 49°29' E 000°07'0 0.0
2017-Apr-18 12:00N 49°29' E 000°07'0 0.0
2017-Apr-18 11:30N 49°29' E 000°07'0 0.0
2017-Apr-18 11:00N 49°29' E 000°07'0 0.0
2017-Apr-18 10:30N 49°29' E 000°07'0 0.0
2017-Apr-18 10:00N 49°29' E 000°07'0 0.0
2017-Apr-18 09:30N 49°29' E 000°07'0 0.0
2017-Apr-18 09:00N 49°29' E 000°07'0 0.0
2017-Apr-18 08:30N 49°29' E 000°07'  
Track history (hours):
 
Tides and Currents Weather Stations Pressure Air Temp Water Temp Dewpoint Dewpoint Depression Visibility Wind Speed Wind Dir Waves Ship Positions

Etretat

Last reported at 2017-Apr-28 08:01 UTC. Time now 2017-Apr-28 08:15 UTC.
Position N 50°49' W 001°06'.

Length 187 m; draft 6 m.

Type: Ship. MMSI: 228022900.

Date/timePositionNaut miles runAvg speedWind from/ knotsBaromVisibWave heightAir tempDewpointWater temp
2017-Apr-28 08:01N 50°49' W 001°06'0 0.0
2017-Apr-28 07:31N 50°49' W 001°06'0 0.0
2017-Apr-28 07:00N 50°49' W 001°06'0 0.0
2017-Apr-28 06:30N 50°49' W 001°06'0 0.3
2017-Apr-28 06:01N 50°49' W 001°06'4 7.6
2017-Apr-28 05:31N 50°45' W 001°05'917.3
2017-Apr-28 05:00N 50°39' W 000°55'714.2
2017-Apr-28 04:30N 50°32' W 000°51'1813.5
2017-Apr-28 03:09N 50°16' W 000°38'213.7
2017-Apr-28 03:00N 50°14' W 000°37'713.8
2017-Apr-28 02:30N 50°08' W 000°33'714.4
2017-Apr-28 02:00N 50°01' W 000°28'714.4
2017-Apr-28 01:30N 49°55' W 000°23'5 9.6
2017-Apr-28 01:00N 49°51' W 000°19'1 1.3
2017-Apr-28 00:30N 49°52' W 000°19'1 1.1
2017-Apr-28 00:00N 49°52' W 000°18'5 9.7
2017-Apr-27 23:30N 49°48' W 000°14'0 0.7
2017-Apr-27 23:00N 49°47' W 000°13'5 9.6
2017-Apr-27 22:30N 49°44' W 000°09'4 8.1
2017-Apr-27 22:00N 49°40' W 000°05'4 8.8
2017-Apr-27 21:31N 49°36' W 000°03'5 9.2
2017-Apr-27 21:00N 49°32' W 000°00'510.4
2017-Apr-27 20:30N 49°29' E 000°07'0 0.0
2017-Apr-27 20:00N 49°29' E 000°07'0 0.0
2017-Apr-27 19:30N 49°29' E 000°07'0 0.0
2017-Apr-27 19:00N 49°29' E 000°07'0 0.0
2017-Apr-27 18:30N 49°29' E 000°07'0 0.0
2017-Apr-27 18:00N 49°29' E 000°07'0 0.0
2017-Apr-27 17:30N 49°29' E 000°07'0 0.0
2017-Apr-27 17:00N 49°29' E 000°07'0 0.0
2017-Apr-27 16:30N 49°29' E 000°07'0 0.0
2017-Apr-27 16:00N 49°29' E 000°07'0 0.0
2017-Apr-27 15:30N 49°29' E 000°07'0 0.0
2017-Apr-27 15:00N 49°29' E 000°07'0 0.0
2017-Apr-27 14:00N 49°29' E 000°07'0 0.0
2017-Apr-27 13:30N 49°29' E 000°07'0 0.0
2017-Apr-27 13:00N 49°29' E 000°07'0 0.0
2017-Apr-27 12:30N 49°29' E 000°07'0 0.0
2017-Apr-27 12:00N 49°29' E 000°07'0 0.0
2017-Apr-27 11:30N 49°29' E 000°07'0 0.0
2017-Apr-27 11:00N 49°29' E 000°07'0 0.0
2017-Apr-27 10:30N 49°29' E 000°07'0 0.0
2017-Apr-27 10:00N 49°29' E 000°07'0 0.0
2017-Apr-27 09:30N 49°29' E 000°07'0 0.0
2017-Apr-27 09:00N 49°29' E 000°07'0 0.0
2017-Apr-27 08:31N 49°29' E 000°07'0 0.0
2017-Apr-27 08:00N 49°29' E 000°07'0 0.0
2017-Apr-27 07:30N 49°29' E 000°07'0 0.0
2017-Apr-27 07:00N 49°29' E 000°07'0 0.0
2017-Apr-27 06:30N 49°29' E 000°07'2 4.1
2017-Apr-27 06:00N 49°30' E 000°04'816.3
2017-Apr-27 05:30N 49°36' W 000°04'612.4
2017-Apr-27 05:00N 49°41' W 000°09'1 1.6
2017-Apr-27 04:30N 49°42' W 000°08'510.7
2017-Apr-27 04:01N 49°47' W 000°13'815.0
2017-Apr-27 03:31N 49°53' W 000°18'714.9
2017-Apr-27 03:01N 49°60' W 000°24'714.5
2017-Apr-27 02:30N 50°06' W 000°30'2414.5
2017-Apr-27 00:50N 50°28' W 000°46'513.9
2017-Apr-27 00:30N 50°32' W 000°50'714.1
2017-Apr-27 00:00N 50°38' W 000°55'713.8
2017-Apr-26 23:31N 50°43' W 001°02'510.9
2017-Apr-26 23:00N 50°48' W 001°07'1 2.1
2017-Apr-26 22:30N 50°49' W 001°06'0 0.0
2017-Apr-26 22:00N 50°49' W 001°06'0 0.0
2017-Apr-26 21:30N 50°49' W 001°06'0 0.0
2017-Apr-26 21:00N 50°49' W 001°06'1 2.4
2017-Apr-26 20:30N 50°48' W 001°07'713.7
2017-Apr-26 20:01N 50°43' W 000°59'1020.1
2017-Apr-26 19:30N 50°34' W 000°52'1020.4
2017-Apr-26 19:00N 50°25' W 000°45'1920.8
2017-Apr-26 18:07N 50°08' W 000°32'220.9
2017-Apr-26 18:00N 50°06' W 000°30'1121.2
2017-Apr-26 17:30N 49°57' W 000°22'1121.4
2017-Apr-26 17:01N 49°48' W 000°13'1121.3
2017-Apr-26 16:30N 49°38' W 000°06'918.3
2017-Apr-26 16:00N 49°30' E 000°01'4 7.6
2017-Apr-26 15:30N 49°29' E 000°07'0 0.0
2017-Apr-26 15:00N 49°29' E 000°07'0 0.0
2017-Apr-26 14:30N 49°29' E 000°07'0 0.0
2017-Apr-26 13:30N 49°29' E 000°07'0 0.0
2017-Apr-26 13:00N 49°29' E 000°07'0 0.0
2017-Apr-26 12:30N 49°29' E 000°07'0 0.0
2017-Apr-26 12:00N 49°29' E 000°07'0 0.0
2017-Apr-26 11:30N 49°29' E 000°07'0 0.0
2017-Apr-26 11:00N 49°29' E 000°07'0 0.0
2017-Apr-26 10:30N 49°29' E 000°07'0 0.0
2017-Apr-26 10:00N 49°29' E 000°07'0 0.0
2017-Apr-26 09:30N 49°29' E 000°07'0 0.0
2017-Apr-26 09:00N 49°29' E 000°07'0 0.0
2017-Apr-26 08:30N 49°29' E 000°07'0 0.0
2017-Apr-26 08:00N 49°29' E 000°07'0 0.0
2017-Apr-26 07:30N 49°29' E 000°07'0 0.0
2017-Apr-26 07:00N 49°29' E 000°07'0 0.0
2017-Apr-26 06:30N 49°29' E 000°07'1 1.7
2017-Apr-26 06:00N 49°29' E 000°05'815.3
2017-Apr-26 05:30N 49°35' W 000°02'714.1
2017-Apr-26 05:00N 49°41' W 000°08'713.9
2017-Apr-26 04:30N 49°47' W 000°13'713.6
2017-Apr-26 04:00N 49°53' W 000°19'713.2
2017-Apr-26 03:30N 49°58' W 000°25'713.3
2017-Apr-26 03:00N 50°04' W 000°30'2613.5
2017-Apr-26 01:04N 50°28' W 000°47'213.5
2017-Apr-26 00:55N 50°30' W 000°48'613.4
2017-Apr-26 00:30N 50°35' W 000°52'713.8
2017-Apr-26 00:00N 50°41' W 000°57'612.8
2017-Apr-25 23:30N 50°45' W 001°05'4 8.1
2017-Apr-25 23:00N 50°49' W 001°06'0 0.1
2017-Apr-25 22:30N 50°49' W 001°06'0 0.0
2017-Apr-25 22:00N 50°49' W 001°06'0 0.0
2017-Apr-25 21:30N 50°49' W 001°06'0 0.0
2017-Apr-25 21:00N 50°49' W 001°06'2 3.6
2017-Apr-25 20:30N 50°47' W 001°06'4 8.8
2017-Apr-25 20:00N 50°44' W 001°02'4 8.9
2017-Apr-25 19:30N 50°40' W 000°56'815.7
2017-Apr-25 19:01N 50°35' W 000°48'918.4
2017-Apr-25 18:30N 50°28' W 000°39'1420.2
2017-Apr-25 17:50N 50°15' W 000°32'720.0
2017-Apr-25 17:30N 50°09' W 000°28'1020.1
2017-Apr-25 17:01N 49°60' W 000°21'1020.4
2017-Apr-25 16:30N 49°51' W 000°14'1020.3
2017-Apr-25 16:01N 49°41' W 000°07'1020.2
2017-Apr-25 15:31N 49°32' W 000°01'611.5
2017-Apr-25 15:01N 49°29' E 000°07'0 0.0
2017-Apr-25 14:31N 49°29' E 000°07'0 0.0
2017-Apr-25 13:31N 49°29' E 000°07'0 0.0
2017-Apr-25 13:00N 49°29' E 000°07'0 0.0
2017-Apr-25 12:31N 49°29' E 000°07'0 0.0
2017-Apr-25 12:01N 49°29' E 000°07'0 0.0
2017-Apr-25 11:30N 49°29' E 000°07'0 0.0
2017-Apr-25 11:01N 49°29' E 000°07'0 0.0
2017-Apr-25 10:31N 49°29' E 000°07'0 0.0
2017-Apr-25 10:01N 49°29' E 000°07'0 0.0
2017-Apr-25 09:30N 49°29' E 000°07'0 0.0
2017-Apr-25 09:01N 49°29' E 000°07'0 0.0
2017-Apr-25 08:31N 49°29' E 000°07'0 0.0
2017-Apr-25 08:01N 49°29' E 000°07'0 0.0
2017-Apr-25 07:30N 49°29' E 000°07'0 0.0
2017-Apr-25 07:01N 49°29' E 000°07'0 0.0
2017-Apr-25 06:31N 49°29' E 000°07'3 5.7
2017-Apr-25 06:01N 49°30' E 000°02'612.9
2017-Apr-25 05:30N 49°35' W 000°04'611.4
2017-Apr-25 05:00N 49°40' W 000°07'611.5
2017-Apr-25 04:30N 49°45' W 000°11'611.4
2017-Apr-25 04:00N 49°50' W 000°14'612.4
2017-Apr-25 03:30N 49°56' W 000°19'612.7
2017-Apr-25 03:00N 50°01' W 000°23'612.3
2017-Apr-25 02:30N 50°07' W 000°28'2412.9
2017-Apr-25 00:39N 50°28' W 000°47'213.6
2017-Apr-25 00:30N 50°30' W 000°48'713.4
2017-Apr-25 00:00N 50°36' W 000°53'713.7
2017-Apr-24 23:30N 50°42' W 000°58'612.8
2017-Apr-24 23:00N 50°46' W 001°05'3 5.9
2017-Apr-24 22:31N 50°49' W 001°06'0 0.0
2017-Apr-24 22:00N 50°49' W 001°06'0 0.0
2017-Apr-24 21:30N 50°49' W 001°06'0 0.0
2017-Apr-24 21:00N 50°49' W 001°06'0 0.2
2017-Apr-24 20:30N 50°49' W 001°06'4 7.0
2017-Apr-24 20:00N 50°45' W 001°05'510.6
2017-Apr-24 19:31N 50°42' W 000°58'917.6
2017-Apr-24 19:01N 50°35' W 000°52'1019.7
2017-Apr-24 18:30N 50°26' W 000°44'1020.0
2017-Apr-24 18:00N 50°17' W 000°36'1019.9
2017-Apr-24 17:31N 50°09' W 000°28'1020.0
2017-Apr-24 17:01N 49°60' W 000°22'1020.0
2017-Apr-24 16:31N 49°50' W 000°15'1020.4
2017-Apr-24 16:01N 49°41' W 000°08'1020.0
2017-Apr-24 15:31N 49°33' W 000°01'611.9
2017-Apr-24 15:00N 49°29' E 000°07'0 0.0
2017-Apr-24 14:30N 49°29' E 000°07'0 0.0
2017-Apr-24 13:30N 49°29' E 000°07'0 0.0
2017-Apr-24 13:00N 49°29' E 000°07'0 0.0
2017-Apr-24 12:30N 49°29' E 000°07'0 0.0
2017-Apr-24 12:00N 49°29' E 000°07'0 0.0
2017-Apr-24 11:30N 49°29' E 000°07'0 0.0
2017-Apr-24 11:00N 49°29' E 000°07'0 0.0
2017-Apr-24 10:30N 49°29' E 000°07'0 0.0
2017-Apr-24 10:00N 49°29' E 000°07'0 0.0
2017-Apr-24 09:30N 49°29' E 000°07'0 0.0
2017-Apr-24 09:00N 49°29' E 000°07'0 0.0
2017-Apr-24 08:30N 49°29' E 000°07'0 0.0
2017-Apr-24 08:01N 49°29' E 000°07'0 0.0
2017-Apr-24 07:30N 49°29' E 000°07'0 0.0
2017-Apr-24 07:00N 49°29' E 000°07'0 0.0
2017-Apr-24 06:30N 49°29' E 000°07'1 2.6
2017-Apr-24 06:01N 49°29' E 000°05'816.6
2017-Apr-24 05:31N 49°36' W 000°02'3 5.4
2017-Apr-24 05:00N 49°39' W 000°03'1 1.5
2017-Apr-24 04:30N 49°39' W 000°04'3 6.5
2017-Apr-24 04:01N 49°41' W 000°07'714.4
2017-Apr-24 03:31N 49°48' W 000°13'714.3
2017-Apr-24 03:01N 49°54' W 000°18'714.4
2017-Apr-24 02:30N 50°00' W 000°23'714.5
2017-Apr-24 02:01N 50°07' W 000°28'714.2
2017-Apr-24 01:31N 50°13' W 000°34'714.3
2017-Apr-24 01:01N 50°19' W 000°39'914.5
2017-Apr-24 00:24N 50°27' W 000°45'614.5
2017-Apr-24 00:01N 50°32' W 000°49'714.0
2017-Apr-23 23:30N 50°39' W 000°54'612.7
2017-Apr-23 23:01N 50°43' W 001°01'611.4
2017-Apr-23 22:31N 50°47' W 001°07'1 2.7
2017-Apr-23 22:01N 50°49' W 001°06'0 0.0
2017-Apr-23 21:31N 50°49' W 001°06'0 0.0
2017-Apr-23 21:01N 50°49' W 001°06'0 0.0
2017-Apr-23 20:31N 50°49' W 001°06'1 1.7
2017-Apr-23 20:00N 50°48' W 001°07'713.2
2017-Apr-23 19:31N 50°43' W 001°00'1020.0
2017-Apr-23 19:01N 50°35' W 000°52'1020.3
2017-Apr-23 18:31N 50°26' W 000°44'1020.5
2017-Apr-23 18:01N 50°17' W 000°37'1320.3
2017-Apr-23 17:21N 50°05' W 000°26'720.3
2017-Apr-23 17:00N 49°59' W 000°20'1020.0
2017-Apr-23 16:31N 49°50' W 000°14'1020.4
2017-Apr-23 16:00N 49°41' W 000°07'1020.2
2017-Apr-23 15:31N 49°32' W 000°00'511.0
2017-Apr-23 15:00N 49°29' E 000°07'0 0.0
2017-Apr-23 14:00N 49°29' E 000°07'0 0.0
2017-Apr-23 13:30N 49°29' E 000°07'0 0.0
2017-Apr-23 13:00N 49°29' E 000°07'0 0.0
2017-Apr-23 12:30N 49°29' E 000°07'0 0.0
2017-Apr-23 12:00N 49°29' E 000°07'0 0.0
2017-Apr-23 11:30N 49°29' E 000°07'0 0.0
2017-Apr-23 11:00N 49°29' E 000°07'0 0.0
2017-Apr-23 10:30N 49°29' E 000°07'0 0.0
2017-Apr-23 10:00N 49°29' E 000°07'0 0.0
2017-Apr-23 09:30N 49°29' E 000°07'0 0.0
2017-Apr-23 09:00N 49°29' E 000°07'0 0.0
2017-Apr-23 08:30N 49°29' E 000°07'0 0.0
2017-Apr-23 08:00N 49°29' E 000°07'0 0.0
2017-Apr-23 07:30N 49°29' E 000°07'0 0.0
2017-Apr-23 07:00N 49°29' E 000°07'0 0.0
2017-Apr-23 06:30N 49°29' E 000°07'1 2.9
2017-Apr-23 06:00N 49°29' E 000°05'816.5
2017-Apr-23 05:31N 49°36' W 000°02'3 6.4
2017-Apr-23 05:01N 49°39' W 000°04'1 1.7
2017-Apr-23 04:30N 49°39' W 000°05'611.5
2017-Apr-23 04:00N 49°44' W 000°10'714.7
2017-Apr-23 03:30N 49°50' W 000°15'815.1
2017-Apr-23 03:00N 49°57' W 000°22'714.9
2017-Apr-23 02:30N 50°02' W 000°29'814.5
2017-Apr-23 01:57N 50°09' W 000°37'613.8
2017-Apr-23 01:30N 50°15' W 000°40'1414.2
2017-Apr-23 00:30N 50°28' W 000°47'713.9
2017-Apr-23 00:00N 50°34' W 000°52'714.0
2017-Apr-22 23:30N 50°40' W 000°57'713.4
2017-Apr-22 23:00N 50°45' W 001°05'4 8.0
2017-Apr-22 22:30N 50°49' W 001°06'0 0.3
2017-Apr-22 22:01N 50°49' W 001°06'0 0.0
2017-Apr-22 21:30N 50°49' W 001°06'0 0.0
2017-Apr-22 21:00N 50°49' W 001°06'0 0.2
2017-Apr-22 20:30N 50°49' W 001°06'3 5.6
2017-Apr-22 20:00N 50°46' W 001°05'918.0
2017-Apr-22 19:30N 50°39' W 000°56'918.4
2017-Apr-22 19:00N 50°31' W 000°51'1118.8
2017-Apr-22 18:24N 50°21' W 000°42'818.5
2017-Apr-22 17:58N 50°14' W 000°35'918.7
2017-Apr-22 17:30N 50°06' W 000°29'918.7
2017-Apr-22 17:00N 49°58' W 000°22'918.6
2017-Apr-22 16:30N 49°50' W 000°14'1019.4
2017-Apr-22 16:00N 49°42' W 000°07'1020.6
2017-Apr-22 15:30N 49°32' W 000°00'611.1
2017-Apr-22 15:00N 49°29' E 000°07'0 0.0
2017-Apr-22 14:00N 49°29' E 000°07'0 0.0
2017-Apr-22 13:30N 49°29' E 000°07'0 0.0
2017-Apr-22 13:00N 49°29' E 000°07'0 0.0
2017-Apr-22 12:30N 49°29' E 000°07'0 0.0
2017-Apr-22 12:00N 49°29' E 000°07'0 0.0
2017-Apr-22 11:30N 49°29' E 000°07'0 0.0
2017-Apr-22 11:00N 49°29' E 000°07'0 0.0
2017-Apr-22 10:30N 49°29' E 000°07'0 0.0
2017-Apr-22 10:00N 49°29' E 000°07'0 0.0
2017-Apr-22 09:30N 49°29' E 000°07'0 0.0
2017-Apr-22 09:00N 49°29' E 000°07'0 0.0
2017-Apr-22 08:30N 49°29' E 000°07'0 0.0
2017-Apr-22 08:00N 49°29' E 000°07'0 0.0
2017-Apr-22 07:30N 49°29' E 000°07'0 0.0
2017-Apr-22 07:00N 49°29' E 000°07'0 0.0
2017-Apr-22 06:30N 49°29' E 000°07'1 2.9
2017-Apr-22 06:00N 49°29' E 000°05'816.1
2017-Apr-22 05:30N 49°36' W 000°02'2 4.5
2017-Apr-22 05:00N 49°38' W 000°03'1 1.5
2017-Apr-22 04:30N 49°38' W 000°04'4 8.5
2017-Apr-22 04:00N 49°42' W 000°08'713.9
2017-Apr-22 03:30N 49°48' W 000°12'714.2
2017-Apr-22 03:00N 49°54' W 000°19'714.0
2017-Apr-22 02:30N 49°59' W 000°25'714.3
2017-Apr-22 02:00N 50°06' W 000°30'714.5
2017-Apr-22 01:30N 50°12' W 000°36'714.2
2017-Apr-22 01:00N 50°18' W 000°41'714.2
2017-Apr-22 00:30N 50°25' W 000°45'714.2
2017-Apr-22 00:00N 50°32' W 000°49'714.1
2017-Apr-21 23:30N 50°38' W 000°54'714.2
2017-Apr-21 23:01N 50°43' W 001°01'611.4
2017-Apr-21 22:31N 50°48' W 001°07'1 2.1
2017-Apr-21 22:00N 50°49' W 001°06'0 0.0
2017-Apr-21 21:30N 50°49' W 001°06'0 0.0
2017-Apr-21 21:00N 50°49' W 001°06'0 0.0
2017-Apr-21 20:30N 50°49' W 001°06'0 0.0
2017-Apr-21 20:01N 50°49' W 001°06'0 0.0
2017-Apr-21 19:30N 50°49' W 001°06'0 0.0
2017-Apr-21 19:00N 50°49' W 001°06'0 0.0
2017-Apr-21 18:30N 50°49' W 001°06'0 0.0
2017-Apr-21 18:00N 50°49' W 001°06'0 0.0
2017-Apr-21 17:30N 50°49' W 001°06'0 0.0
2017-Apr-21 17:00N 50°49' W 001°06'0 0.0
2017-Apr-21 16:31N 50°49' W 001°06'0 0.0
2017-Apr-21 16:00N 50°49' W 001°06'0 0.0
2017-Apr-21 15:30N 50°49' W 001°06'0 0.0
2017-Apr-21 15:00N 50°49' W 001°06'0 0.0
2017-Apr-21 14:30N 50°49' W 001°06'0 0.0
2017-Apr-21 13:30N 50°49' W 001°06'0 0.0
2017-Apr-21 13:01N 50°49' W 001°06'0 0.0
2017-Apr-21 12:31N 50°49' W 001°06'0 0.0
2017-Apr-21 12:00N 50°49' W 001°06'0 0.0
2017-Apr-21 11:30N 50°49' W 001°06'0 0.0
2017-Apr-21 11:00N 50°49' W 001°06'0 0.0
2017-Apr-21 10:30N 50°49' W 001°06'0 0.0
2017-Apr-21 10:01N 50°49' W 001°06'0 0.0
2017-Apr-21 09:30N 50°49' W 001°06'0 0.0
2017-Apr-21 09:00N 50°49' W 001°06'0 0.0
2017-Apr-21 08:30N 50°49' W 001°06'0 0.0
2017-Apr-21 08:00N 50°49' W 001°06'0 0.0
2017-Apr-21 07:30N 50°49' W 001°06'0 0.0
2017-Apr-21 07:00N 50°49' W 001°06'0 0.0
2017-Apr-21 06:30N 50°49' W 001°06'1 1.3
2017-Apr-21 06:01N 50°48' W 001°07'611.8
2017-Apr-21 05:31N 50°44' W 001°02'917.0
2017-Apr-21 05:00N 50°37' W 000°53'815.5
2017-Apr-21 04:30N 50°30' W 000°48'914.8
2017-Apr-21 03:52N 50°22' W 000°41'514.6
2017-Apr-21 03:30N 50°17' W 000°37'714.6
2017-Apr-21 03:00N 50°11' W 000°32'714.7
2017-Apr-21 02:30N 50°04' W 000°27'714.8
2017-Apr-21 02:01N 49°57' W 000°22'714.8
2017-Apr-21 01:31N 49°51' W 000°17'714.8
2017-Apr-21 01:01N 49°44' W 000°12'1 2.8
2017-Apr-21 00:30N 49°43' W 000°11'0 0.7
2017-Apr-21 00:00N 49°43' W 000°11'0 0.9
2017-Apr-20 23:30N 49°43' W 000°10'0 1.0
2017-Apr-20 23:00N 49°43' W 000°10'1 1.2
2017-Apr-20 22:30N 49°44' W 000°09'1 1.1
2017-Apr-20 22:00N 49°44' W 000°08'4 7.9
2017-Apr-20 21:30N 49°40' W 000°05'510.2
2017-Apr-20 21:00N 49°35' W 000°03'510.4
2017-Apr-20 20:30N 49°31' E 000°01'4 8.1
2017-Apr-20 20:00N 49°29' E 000°07'0 0.0
2017-Apr-20 19:30N 49°29' E 000°07'0 0.0
2017-Apr-20 19:00N 49°29' E 000°07'0 0.0
2017-Apr-20 18:30N 49°29' E 000°07'0 0.0
2017-Apr-20 18:00N 49°29' E 000°07'0 0.0
2017-Apr-20 17:30N 49°29' E 000°07'0 0.0
2017-Apr-20 17:00N 49°29' E 000°07'0 0.0
2017-Apr-20 16:30N 49°29' E 000°07'0 0.0
2017-Apr-20 16:00N 49°29' E 000°07'0 0.0
2017-Apr-20 15:30N 49°29' E 000°07'0 0.0
2017-Apr-20 15:00N 49°29' E 000°07'0 0.0
2017-Apr-20 14:30N 49°29' E 000°07'0 0.0
2017-Apr-20 13:30N 49°29' E 000°07'0 0.0
2017-Apr-20 13:00N 49°29' E 000°07'0 0.0
2017-Apr-20 12:30N 49°29' E 000°07'0 0.0
2017-Apr-20 12:00N 49°29' E 000°07'0 0.0
2017-Apr-20 11:30N 49°29' E 000°07'0 0.0
2017-Apr-20 11:00N 49°29' E 000°07'0 0.0
2017-Apr-20 10:30N 49°29' E 000°07'0 0.0
2017-Apr-20 10:00N 49°29' E 000°07'0 0.0
2017-Apr-20 09:30N 49°29' E 000°07'0 0.0
2017-Apr-20 09:00N 49°29' E 000°07'0 0.0
2017-Apr-20 08:30N 49°29' E 000°07'0 0.0
2017-Apr-20 08:00N 49°29' E 000°07'0 0.0
2017-Apr-20 07:30N 49°29' E 000°07'0 0.0
2017-Apr-20 07:00N 49°29' E 000°07'0 0.0
2017-Apr-20 06:30N 49°29' E 000°07'2 3.4
2017-Apr-20 06:00N 49°29' E 000°04'714.9
2017-Apr-20 05:30N 49°35' W 000°03'612.2
2017-Apr-20 05:00N 49°41' W 000°08'611.7
2017-Apr-20 04:30N 49°46' W 000°12'611.9
2017-Apr-20 04:00N 49°51' W 000°16'612.1
2017-Apr-20 03:30N 49°56' W 000°21'713.7
2017-Apr-20 03:00N 50°02' W 000°25'3215.0
2017-Apr-20 00:54N 50°30' W 000°49'615.5
2017-Apr-20 00:30N 50°36' W 000°53'714.0
2017-Apr-20 00:01N 50°42' W 000°58'713.4
2017-Apr-19 23:30N 50°47' W 001°06'2 4.1
2017-Apr-19 23:00N 50°49' W 001°06'0 0.0
2017-Apr-19 22:31N 50°49' W 001°06'0 0.0
2017-Apr-19 22:00N 50°49' W 001°06'0 0.0
2017-Apr-19 21:30N 50°49' W 001°06'0 0.0
2017-Apr-19 21:00N 50°49' W 001°06'1 2.7
2017-Apr-19 20:30N 50°47' W 001°07'714.8
2017-Apr-19 20:00N 50°42' W 000°58'1121.1
2017-Apr-19 19:30N 50°33' W 000°50'2421.9
2017-Apr-19 18:25N 50°13' W 000°30'921.5
2017-Apr-19 18:00N 50°04' W 000°26'1121.8
2017-Apr-19 17:30N 49°55' W 000°19'1121.6
2017-Apr-19 17:00N 49°45' W 000°11'1121.4
2017-Apr-19 16:30N 49°36' W 000°03'917.9
2017-Apr-19 16:01N 49°29' E 000°06'0 0.5
2017-Apr-19 15:31N 49°29' E 000°07'0 0.0
2017-Apr-19 15:00N 49°29' E 000°07'0 0.0
2017-Apr-19 14:31N 49°29' E 000°07'0 0.0
2017-Apr-19 13:31N 49°29' E 000°07'0 0.0
2017-Apr-19 13:01N 49°29' E 000°07'0 0.0
2017-Apr-19 12:31N 49°29' E 000°07'0 0.0
2017-Apr-19 12:01N 49°29' E 000°07'0 0.0
2017-Apr-19 11:31N 49°29' E 000°07'0 0.0
2017-Apr-19 11:01N 49°29' E 000°07'0 0.0
2017-Apr-19 10:31N 49°29' E 000°07'0 0.0
2017-Apr-19 10:01N 49°29' E 000°07'0 0.0
2017-Apr-19 09:31N 49°29' E 000°07'0 0.0
2017-Apr-19 09:01N 49°29' E 000°07'0 0.0
2017-Apr-19 08:31N 49°29' E 000°07'0 0.0
2017-Apr-19 08:01N 49°29' E 000°07'0 0.0
2017-Apr-19 07:30N 49°29' E 000°07'0 0.0
2017-Apr-19 07:01N 49°29' E 000°07'0 0.0
2017-Apr-19 06:31N 49°29' E 000°07'2 3.2
2017-Apr-19 06:01N 49°29' E 000°04'815.9
2017-Apr-19 05:31N 49°36' W 000°02'4 7.6
2017-Apr-19 05:00N 49°40' W 000°04'1 2.5
2017-Apr-19 04:30N 49°41' W 000°06'611.1
2017-Apr-19 04:00N 49°45' W 000°11'611.5
2017-Apr-19 03:30N 49°50' W 000°15'714.7
2017-Apr-19 03:00N 49°57' W 000°20'714.4
2017-Apr-19 02:30N 50°03' W 000°25'3214.0
2017-Apr-19 00:15N 50°31' W 000°48'313.8
2017-Apr-19 00:00N 50°34' W 000°51'713.8
2017-Apr-18 23:30N 50°40' W 000°56'713.1
2017-Apr-18 23:01N 50°44' W 001°04'5 9.5
2017-Apr-18 22:30N 50°49' W 001°06'0 0.3
2017-Apr-18 22:01N 50°49' W 001°06'0 0.0
2017-Apr-18 21:31N 50°49' W 001°06'0 0.0
2017-Apr-18 21:01N 50°49' W 001°06'0 0.0
2017-Apr-18 20:30N 50°49' W 001°06'2 3.6
2017-Apr-18 20:00N 50°47' W 001°06'714.9
2017-Apr-18 19:31N 50°42' W 000°58'1020.1
2017-Apr-18 19:00N 50°33' W 000°50'1020.6
2017-Apr-18 18:30N 50°24' W 000°42'1221.0
2017-Apr-18 17:55N 50°14' W 000°32'921.1
2017-Apr-18 17:30N 50°05' W 000°28'1121.6
2017-Apr-18 17:00N 49°56' W 000°20'1121.7
2017-Apr-18 16:30N 49°46' W 000°13'1121.9
2017-Apr-18 16:00N 49°36' W 000°04'1019.3
2017-Apr-18 15:30N 49°29' E 000°06'1 1.5
2017-Apr-18 15:00N 49°29' E 000°07'0 0.0
2017-Apr-18 14:30N 49°29' E 000°07'0 0.0
2017-Apr-18 13:30N 49°29' E 000°07'0 0.0
2017-Apr-18 13:00N 49°29' E 000°07'0 0.0
2017-Apr-18 12:30N 49°29' E 000°07'0 0.0
2017-Apr-18 12:00N 49°29' E 000°07'0 0.0
2017-Apr-18 11:30N 49°29' E 000°07'0 0.0
2017-Apr-18 11:00N 49°29' E 000°07'0 0.0
2017-Apr-18 10:30N 49°29' E 000°07'0 0.0
2017-Apr-18 10:00N 49°29' E 000°07'0 0.0
2017-Apr-18 09:30N 49°29' E 000°07'0 0.0
2017-Apr-18 09:00N 49°29' E 000°07'0 0.0
2017-Apr-18 08:30N 49°29' E 000°07'  

Dump ship's entire track history